sensor_id;sensor_type;location;lat;lon;timestamp;P1;durP1;ratioP1;P2;durP2;ratioP2
69730;SDS011;56996;48.138;11.538;2023-11-19T00:01:07;5.70;;;1.50;;
69730;SDS011;56996;48.138;11.538;2023-11-19T00:03:33;5.60;;;1.60;;
69730;SDS011;56996;48.138;11.538;2023-11-19T00:06:01;5.00;;;1.40;;
69730;SDS011;56996;48.138;11.538;2023-11-19T00:08:31;5.10;;;1.60;;
69730;SDS011;56996;48.138;11.538;2023-11-19T00:11:01;4.90;;;1.40;;
69730;SDS011;56996;48.138;11.538;2023-11-19T00:13:28;4.40;;;1.30;;
69730;SDS011;56996;48.138;11.538;2023-11-19T00:15:55;6.40;;;1.80;;
69730;SDS011;56996;48.138;11.538;2023-11-19T00:18:23;5.20;;;1.50;;
69730;SDS011;56996;48.138;11.538;2023-11-19T00:20:51;4.50;;;1.30;;
69730;SDS011;56996;48.138;11.538;2023-11-19T00:23:20;4.80;;;1.40;;
69730;SDS011;56996;48.138;11.538;2023-11-19T00:25:47;5.50;;;1.50;;
69730;SDS011;56996;48.138;11.538;2023-11-19T00:28:13;5.10;;;1.50;;
69730;SDS011;56996;48.138;11.538;2023-11-19T00:30:39;5.20;;;1.50;;
69730;SDS011;56996;48.138;11.538;2023-11-19T00:33:07;5.40;;;1.40;;
69730;SDS011;56996;48.138;11.538;2023-11-19T00:35:37;5.00;;;1.40;;
69730;SDS011;56996;48.138;11.538;2023-11-19T00:38:29;5.50;;;1.70;;
69730;SDS011;56996;48.138;11.538;2023-11-19T00:41:05;4.70;;;1.50;;
69730;SDS011;56996;48.138;11.538;2023-11-19T00:43:38;5.60;;;1.70;;
69730;SDS011;56996;48.138;11.538;2023-11-19T00:46:07;5.30;;;1.50;;
69730;SDS011;56996;48.138;11.538;2023-11-19T00:48:41;5.20;;;1.70;;
69730;SDS011;56996;48.138;11.538;2023-11-19T00:51:12;4.70;;;1.50;;
69730;SDS011;56996;48.138;11.538;2023-11-19T00:53:48;4.80;;;1.60;;
69730;SDS011;56996;48.138;11.538;2023-11-19T00:57:18;6.00;;;1.60;;
69730;SDS011;56996;48.138;11.538;2023-11-19T01:00:28;5.00;;;1.60;;
69730;SDS011;56996;48.138;11.538;2023-11-19T01:02:58;4.40;;;1.30;;
69730;SDS011;56996;48.138;11.538;2023-11-19T01:05:28;4.30;;;1.40;;
69730;SDS011;56996;48.138;11.538;2023-11-19T01:08:07;4.40;;;1.30;;
69730;SDS011;56996;48.138;11.538;2023-11-19T01:10:43;4.90;;;1.40;;
69730;SDS011;56996;48.138;11.538;2023-11-19T01:13:23;5.50;;;1.40;;
69730;SDS011;56996;48.138;11.538;2023-11-19T01:15:53;4.40;;;1.30;;
69730;SDS011;56996;48.138;11.538;2023-11-19T01:18:19;5.10;;;1.40;;
69730;SDS011;56996;48.138;11.538;2023-11-19T01:20:46;4.70;;;1.40;;
69730;SDS011;56996;48.138;11.538;2023-11-19T01:23:12;5.20;;;1.20;;
69730;SDS011;56996;48.138;11.538;2023-11-19T01:25:38;4.40;;;1.30;;
69730;SDS011;56996;48.138;11.538;2023-11-19T01:28:05;4.30;;;1.30;;
69730;SDS011;56996;48.138;11.538;2023-11-19T01:30:32;4.00;;;1.10;;
69730;SDS011;56996;48.138;11.538;2023-11-19T01:32:59;4.20;;;1.30;;
69730;SDS011;56996;48.138;11.538;2023-11-19T01:35:27;5.70;;;1.70;;
69730;SDS011;56996;48.138;11.538;2023-11-19T01:37:55;5.40;;;1.40;;
69730;SDS011;56996;48.138;11.538;2023-11-19T01:40:21;5.30;;;1.60;;
69730;SDS011;56996;48.138;11.538;2023-11-19T01:42:49;5.20;;;1.30;;
69730;SDS011;56996;48.138;11.538;2023-11-19T01:45:22;4.80;;;1.20;;
69730;SDS011;56996;48.138;11.538;2023-11-19T01:47:53;5.40;;;1.20;;
69730;SDS011;56996;48.138;11.538;2023-11-19T01:50:20;5.40;;;1.30;;
69730;SDS011;56996;48.138;11.538;2023-11-19T01:52:47;4.30;;;1.20;;
69730;SDS011;56996;48.138;11.538;2023-11-19T01:55:14;4.80;;;1.10;;
69730;SDS011;56996;48.138;11.538;2023-11-19T01:57:41;5.60;;;1.40;;
69730;SDS011;56996;48.138;11.538;2023-11-19T02:00:08;5.80;;;1.70;;
69730;SDS011;56996;48.138;11.538;2023-11-19T02:02:42;4.50;;;1.00;;
69730;SDS011;56996;48.138;11.538;2023-11-19T02:05:11;3.90;;;1.10;;
69730;SDS011;56996;48.138;11.538;2023-11-19T02:07:39;4.20;;;1.00;;
69730;SDS011;56996;48.138;11.538;2023-11-19T02:10:07;3.60;;;1.00;;
69730;SDS011;56996;48.138;11.538;2023-11-19T02:12:42;3.90;;;1.20;;
69730;SDS011;56996;48.138;11.538;2023-11-19T02:15:10;3.90;;;0.80;;
69730;SDS011;56996;48.138;11.538;2023-11-19T02:17:41;4.10;;;0.80;;
69730;SDS011;56996;48.138;11.538;2023-11-19T02:20:11;4.60;;;1.00;;
69730;SDS011;56996;48.138;11.538;2023-11-19T02:22:41;3.90;;;1.00;;
69730;SDS011;56996;48.138;11.538;2023-11-19T02:25:17;3.90;;;0.80;;
69730;SDS011;56996;48.138;11.538;2023-11-19T02:30:40;3.20;;;0.80;;
69730;SDS011;56996;48.138;11.538;2023-11-19T02:33:28;4.90;;;0.90;;
69730;SDS011;56996;48.138;11.538;2023-11-19T02:36:18;4.70;;;1.10;;
69730;SDS011;56996;48.138;11.538;2023-11-19T02:38:47;2.70;;;0.60;;
69730;SDS011;56996;48.138;11.538;2023-11-19T02:41:14;2.60;;;0.60;;
69730;SDS011;56996;48.138;11.538;2023-11-19T02:43:41;2.60;;;0.60;;
69730;SDS011;56996;48.138;11.538;2023-11-19T02:46:09;2.80;;;0.70;;
69730;SDS011;56996;48.138;11.538;2023-11-19T02:48:44;3.00;;;0.70;;
69730;SDS011;56996;48.138;11.538;2023-11-19T02:51:13;2.80;;;0.60;;
69730;SDS011;56996;48.138;11.538;2023-11-19T02:53:40;2.70;;;0.50;;
69730;SDS011;56996;48.138;11.538;2023-11-19T02:56:07;3.30;;;0.50;;
69730;SDS011;56996;48.138;11.538;2023-11-19T02:58:53;2.80;;;0.50;;
69730;SDS011;56996;48.138;11.538;2023-11-19T03:01:26;2.80;;;0.50;;
69730;SDS011;56996;48.138;11.538;2023-11-19T03:03:57;2.90;;;0.60;;
69730;SDS011;56996;48.138;11.538;2023-11-19T03:06:26;1.50;;;0.40;;
69730;SDS011;56996;48.138;11.538;2023-11-19T03:09:12;1.80;;;0.40;;
69730;SDS011;56996;48.138;11.538;2023-11-19T03:11:41;1.70;;;0.40;;
69730;SDS011;56996;48.138;11.538;2023-11-19T03:14:09;1.20;;;0.40;;
69730;SDS011;56996;48.138;11.538;2023-11-19T03:16:36;3.00;;;0.50;;
69730;SDS011;56996;48.138;11.538;2023-11-19T03:19:04;2.80;;;0.40;;
69730;SDS011;56996;48.138;11.538;2023-11-19T03:21:33;1.60;;;0.40;;
69730;SDS011;56996;48.138;11.538;2023-11-19T03:24:06;0.80;;;0.30;;
69730;SDS011;56996;48.138;11.538;2023-11-19T03:26:34;2.00;;;0.50;;
69730;SDS011;56996;48.138;11.538;2023-11-19T03:29:05;3.60;;;0.50;;
69730;SDS011;56996;48.138;11.538;2023-11-19T03:31:42;1.30;;;0.30;;
69730;SDS011;56996;48.138;11.538;2023-11-19T03:34:10;2.00;;;0.40;;
69730;SDS011;56996;48.138;11.538;2023-11-19T03:36:38;2.30;;;0.50;;
69730;SDS011;56996;48.138;11.538;2023-11-19T03:39:05;1.70;;;0.40;;
69730;SDS011;56996;48.138;11.538;2023-11-19T03:41:31;2.50;;;0.50;;
69730;SDS011;56996;48.138;11.538;2023-11-19T03:44:08;1.70;;;0.40;;
69730;SDS011;56996;48.138;11.538;2023-11-19T03:46:34;1.40;;;0.30;;
69730;SDS011;56996;48.138;11.538;2023-11-19T03:49:03;3.50;;;0.50;;
69730;SDS011;56996;48.138;11.538;2023-11-19T03:51:34;1.70;;;0.40;;
69730;SDS011;56996;48.138;11.538;2023-11-19T03:54:08;1.30;;;0.30;;
69730;SDS011;56996;48.138;11.538;2023-11-19T03:56:38;2.60;;;0.40;;
69730;SDS011;56996;48.138;11.538;2023-11-19T03:59:30;1.70;;;0.30;;
69730;SDS011;56996;48.138;11.538;2023-11-19T04:02:38;1.10;;;0.20;;
69730;SDS011;56996;48.138;11.538;2023-11-19T04:05:18;2.30;;;0.30;;
69730;SDS011;56996;48.138;11.538;2023-11-19T04:08:36;1.20;;;0.30;;
69730;SDS011;56996;48.138;11.538;2023-11-19T04:11:10;1.60;;;0.30;;
69730;SDS011;56996;48.138;11.538;2023-11-19T04:13:37;1.50;;;0.30;;
69730;SDS011;56996;48.138;11.538;2023-11-19T04:16:04;1.90;;;0.30;;
69730;SDS011;56996;48.138;11.538;2023-11-19T04:18:44;0.80;;;0.30;;
69730;SDS011;56996;48.138;11.538;2023-11-19T04:21:11;2.00;;;0.30;;
69730;SDS011;56996;48.138;11.538;2023-11-19T04:23:41;2.00;;;0.40;;
69730;SDS011;56996;48.138;11.538;2023-11-19T04:26:10;2.50;;;0.30;;
69730;SDS011;56996;48.138;11.538;2023-11-19T04:28:37;3.40;;;0.40;;
69730;SDS011;56996;48.138;11.538;2023-11-19T04:31:10;1.90;;;0.30;;
69730;SDS011;56996;48.138;11.538;2023-11-19T04:34:05;1.50;;;0.30;;
69730;SDS011;56996;48.138;11.538;2023-11-19T04:36:53;0.70;;;0.20;;
69730;SDS011;56996;48.138;11.538;2023-11-19T04:39:22;1.10;;;0.30;;
69730;SDS011;56996;48.138;11.538;2023-11-19T04:41:51;1.70;;;0.30;;
69730;SDS011;56996;48.138;11.538;2023-11-19T04:44:20;2.00;;;0.30;;
69730;SDS011;56996;48.138;11.538;2023-11-19T04:46:51;1.40;;;0.50;;
69730;SDS011;56996;48.138;11.538;2023-11-19T04:49:17;2.40;;;0.40;;
69730;SDS011;56996;48.138;11.538;2023-11-19T04:51:46;1.40;;;0.30;;
69730;SDS011;56996;48.138;11.538;2023-11-19T04:54:13;1.50;;;0.30;;
69730;SDS011;56996;48.138;11.538;2023-11-19T04:56:46;1.00;;;0.20;;
69730;SDS011;56996;48.138;11.538;2023-11-19T04:59:17;2.20;;;0.40;;
69730;SDS011;56996;48.138;11.538;2023-11-19T05:01:48;1.50;;;0.30;;
69730;SDS011;56996;48.138;11.538;2023-11-19T05:04:14;1.70;;;0.40;;
69730;SDS011;56996;48.138;11.538;2023-11-19T05:06:45;2.00;;;0.60;;
69730;SDS011;56996;48.138;11.538;2023-11-19T05:09:15;1.80;;;0.40;;
69730;SDS011;56996;48.138;11.538;2023-11-19T05:11:50;1.40;;;0.40;;
69730;SDS011;56996;48.138;11.538;2023-11-19T05:14:20;2.60;;;0.40;;
69730;SDS011;56996;48.138;11.538;2023-11-19T05:16:47;2.00;;;0.50;;
69730;SDS011;56996;48.138;11.538;2023-11-19T05:19:14;2.20;;;0.40;;
69730;SDS011;56996;48.138;11.538;2023-11-19T05:21:44;1.60;;;0.40;;
69730;SDS011;56996;48.138;11.538;2023-11-19T05:24:11;1.00;;;0.30;;
69730;SDS011;56996;48.138;11.538;2023-11-19T05:26:40;1.60;;;0.40;;
69730;SDS011;56996;48.138;11.538;2023-11-19T05:29:07;2.80;;;0.40;;
69730;SDS011;56996;48.138;11.538;2023-11-19T05:31:41;1.40;;;0.30;;
69730;SDS011;56996;48.138;11.538;2023-11-19T05:34:10;1.10;;;0.30;;
69730;SDS011;56996;48.138;11.538;2023-11-19T05:36:37;1.60;;;0.50;;
69730;SDS011;56996;48.138;11.538;2023-11-19T05:39:05;1.00;;;0.30;;
69730;SDS011;56996;48.138;11.538;2023-11-19T05:41:31;1.00;;;0.30;;
69730;SDS011;56996;48.138;11.538;2023-11-19T05:43:57;2.10;;;0.40;;
69730;SDS011;56996;48.138;11.538;2023-11-19T05:46:23;1.40;;;0.40;;
69730;SDS011;56996;48.138;11.538;2023-11-19T05:48:51;1.70;;;0.50;;
69730;SDS011;56996;48.138;11.538;2023-11-19T05:51:18;3.40;;;0.60;;
69730;SDS011;56996;48.138;11.538;2023-11-19T05:53:44;2.40;;;0.40;;
69730;SDS011;56996;48.138;11.538;2023-11-19T05:56:16;1.40;;;0.40;;
69730;SDS011;56996;48.138;11.538;2023-11-19T05:58:47;1.30;;;0.40;;
69730;SDS011;56996;48.138;11.538;2023-11-19T06:01:14;1.30;;;0.40;;
69730;SDS011;56996;48.138;11.538;2023-11-19T06:03:40;1.80;;;0.40;;
69730;SDS011;56996;48.138;11.538;2023-11-19T06:06:06;2.30;;;0.50;;
69730;SDS011;56996;48.138;11.538;2023-11-19T06:08:32;1.60;;;0.30;;
69730;SDS011;56996;48.138;11.538;2023-11-19T06:10:58;2.30;;;0.40;;
69730;SDS011;56996;48.138;11.538;2023-11-19T06:13:26;2.20;;;0.40;;
69730;SDS011;56996;48.138;11.538;2023-11-19T06:15:52;1.20;;;0.30;;
69730;SDS011;56996;48.138;11.538;2023-11-19T06:18:18;2.00;;;0.30;;
69730;SDS011;56996;48.138;11.538;2023-11-19T06:20:45;1.50;;;0.30;;
69730;SDS011;56996;48.138;11.538;2023-11-19T06:23:12;1.90;;;0.40;;
69730;SDS011;56996;48.138;11.538;2023-11-19T06:25:38;1.30;;;0.40;;
69730;SDS011;56996;48.138;11.538;2023-11-19T06:28:05;1.50;;;0.30;;
69730;SDS011;56996;48.138;11.538;2023-11-19T06:33:58;1.50;;;0.30;;
69730;SDS011;56996;48.138;11.538;2023-11-19T06:36:24;1.10;;;0.30;;
69730;SDS011;56996;48.138;11.538;2023-11-19T06:38:53;1.90;;;0.30;;
69730;SDS011;56996;48.138;11.538;2023-11-19T06:41:19;0.90;;;0.20;;
69730;SDS011;56996;48.138;11.538;2023-11-19T06:43:45;1.10;;;0.30;;
69730;SDS011;56996;48.138;11.538;2023-11-19T06:49:57;0.80;;;0.30;;
69730;SDS011;56996;48.138;11.538;2023-11-19T07:20:05;1.00;;;0.10;;
69730;SDS011;56996;48.138;11.538;2023-11-19T07:23:25;0.90;;;0.20;;
69730;SDS011;56996;48.138;11.538;2023-11-19T07:27:13;1.00;;;0.30;;
69730;SDS011;56996;48.138;11.538;2023-11-19T08:13:02;0.50;;;0.10;;
69730;SDS011;56996;48.138;11.538;2023-11-19T08:15:58;0.90;;;0.20;;
69730;SDS011;56996;48.138;11.538;2023-11-19T08:18:27;0.60;;;0.20;;
69730;SDS011;56996;48.138;11.538;2023-11-19T08:20:54;0.70;;;0.20;;
69730;SDS011;56996;48.138;11.538;2023-11-19T08:23:22;1.70;;;0.30;;
69730;SDS011;56996;48.138;11.538;2023-11-19T08:25:50;1.60;;;0.20;;
69730;SDS011;56996;48.138;11.538;2023-11-19T08:28:16;0.70;;;0.20;;
69730;SDS011;56996;48.138;11.538;2023-11-19T08:30:42;1.30;;;0.30;;
69730;SDS011;56996;48.138;11.538;2023-11-19T08:33:11;1.00;;;0.20;;
69730;SDS011;56996;48.138;11.538;2023-11-19T08:35:37;1.90;;;0.20;;
69730;SDS011;56996;48.138;11.538;2023-11-19T08:38:03;1.50;;;0.30;;
69730;SDS011;56996;48.138;11.538;2023-11-19T08:40:29;1.70;;;0.30;;
69730;SDS011;56996;48.138;11.538;2023-11-19T08:42:56;1.30;;;0.30;;
69730;SDS011;56996;48.138;11.538;2023-11-19T08:45:22;0.90;;;0.20;;
69730;SDS011;56996;48.138;11.538;2023-11-19T08:47:48;2.10;;;0.60;;
69730;SDS011;56996;48.138;11.538;2023-11-19T08:50:14;1.50;;;0.40;;
69730;SDS011;56996;48.138;11.538;2023-11-19T08:52:41;2.00;;;0.20;;
69730;SDS011;56996;48.138;11.538;2023-11-19T08:55:10;1.70;;;0.40;;
69730;SDS011;56996;48.138;11.538;2023-11-19T08:57:37;1.70;;;0.30;;
69730;SDS011;56996;48.138;11.538;2023-11-19T09:00:04;0.90;;;0.20;;
69730;SDS011;56996;48.138;11.538;2023-11-19T09:02:35;1.10;;;0.30;;
69730;SDS011;56996;48.138;11.538;2023-11-19T09:05:04;0.80;;;0.30;;
69730;SDS011;56996;48.138;11.538;2023-11-19T09:07:35;0.90;;;0.30;;
69730;SDS011;56996;48.138;11.538;2023-11-19T09:10:01;1.10;;;0.30;;
69730;SDS011;56996;48.138;11.538;2023-11-19T09:12:27;5.00;;;1.30;;
69730;SDS011;56996;48.138;11.538;2023-11-19T09:14:53;1.70;;;0.40;;
69730;SDS011;56996;48.138;11.538;2023-11-19T09:20:23;2.40;;;0.50;;
69730;SDS011;56996;48.138;11.538;2023-11-19T09:23:15;1.90;;;0.40;;
69730;SDS011;56996;48.138;11.538;2023-11-19T09:25:42;1.70;;;0.40;;
69730;SDS011;56996;48.138;11.538;2023-11-19T09:28:11;1.20;;;0.40;;
69730;SDS011;56996;48.138;11.538;2023-11-19T09:30:38;1.70;;;0.40;;
69730;SDS011;56996;48.138;11.538;2023-11-19T09:33:05;2.20;;;0.60;;
69730;SDS011;56996;48.138;11.538;2023-11-19T09:35:31;2.30;;;0.50;;
69730;SDS011;56996;48.138;11.538;2023-11-19T09:37:57;1.10;;;0.40;;
69730;SDS011;56996;48.138;11.538;2023-11-19T09:40:25;1.90;;;0.40;;
69730;SDS011;56996;48.138;11.538;2023-11-19T09:43:17;1.60;;;0.30;;
69730;SDS011;56996;48.138;11.538;2023-11-19T09:45:50;1.60;;;0.30;;
69730;SDS011;56996;48.138;11.538;2023-11-19T09:48:17;1.50;;;0.30;;
69730;SDS011;56996;48.138;11.538;2023-11-19T09:50:48;2.10;;;0.40;;
69730;SDS011;56996;48.138;11.538;2023-11-19T09:53:15;1.80;;;0.40;;
69730;SDS011;56996;48.138;11.538;2023-11-19T09:55:42;2.70;;;0.60;;
69730;SDS011;56996;48.138;11.538;2023-11-19T09:58:10;3.30;;;0.50;;
69730;SDS011;56996;48.138;11.538;2023-11-19T10:00:38;3.00;;;0.50;;
69730;SDS011;56996;48.138;11.538;2023-11-19T10:03:06;2.60;;;0.50;;
69730;SDS011;56996;48.138;11.538;2023-11-19T10:05:34;2.50;;;0.50;;
69730;SDS011;56996;48.138;11.538;2023-11-19T10:08:01;2.60;;;0.50;;
69730;SDS011;56996;48.138;11.538;2023-11-19T10:10:28;2.30;;;0.50;;
69730;SDS011;56996;48.138;11.538;2023-11-19T10:12:54;2.10;;;0.40;;
69730;SDS011;56996;48.138;11.538;2023-11-19T10:15:25;1.20;;;0.40;;
69730;SDS011;56996;48.138;11.538;2023-11-19T10:17:55;1.50;;;0.40;;
69730;SDS011;56996;48.138;11.538;2023-11-19T10:20:22;1.30;;;0.40;;
69730;SDS011;56996;48.138;11.538;2023-11-19T10:22:53;1.10;;;0.30;;
69730;SDS011;56996;48.138;11.538;2023-11-19T10:25:26;1.90;;;0.50;;
69730;SDS011;56996;48.138;11.538;2023-11-19T10:27:54;2.80;;;0.60;;
69730;SDS011;56996;48.138;11.538;2023-11-19T10:30:24;0.90;;;0.30;;
69730;SDS011;56996;48.138;11.538;2023-11-19T10:35:50;1.40;;;0.40;;
69730;SDS011;56996;48.138;11.538;2023-11-19T10:38:24;1.90;;;0.40;;
69730;SDS011;56996;48.138;11.538;2023-11-19T10:40:52;1.50;;;0.40;;
69730;SDS011;56996;48.138;11.538;2023-11-19T10:43:19;2.60;;;0.30;;
69730;SDS011;56996;48.138;11.538;2023-11-19T10:45:47;0.70;;;0.30;;
69730;SDS011;56996;48.138;11.538;2023-11-19T10:48:19;2.40;;;0.50;;
69730;SDS011;56996;48.138;11.538;2023-11-19T10:50:52;3.10;;;0.50;;
69730;SDS011;56996;48.138;11.538;2023-11-19T10:53:23;0.80;;;0.30;;
69730;SDS011;56996;48.138;11.538;2023-11-19T10:55:55;1.70;;;0.40;;
69730;SDS011;56996;48.138;11.538;2023-11-19T10:58:24;1.80;;;0.40;;
69730;SDS011;56996;48.138;11.538;2023-11-19T11:00:57;2.40;;;0.40;;
69730;SDS011;56996;48.138;11.538;2023-11-19T11:03:26;1.10;;;0.30;;
69730;SDS011;56996;48.138;11.538;2023-11-19T11:05:53;1.20;;;0.30;;
69730;SDS011;56996;48.138;11.538;2023-11-19T11:08:20;1.20;;;0.30;;
69730;SDS011;56996;48.138;11.538;2023-11-19T11:10:53;2.00;;;0.40;;
69730;SDS011;56996;48.138;11.538;2023-11-19T11:13:24;2.30;;;0.30;;
69730;SDS011;56996;48.138;11.538;2023-11-19T11:15:55;1.30;;;0.40;;
69730;SDS011;56996;48.138;11.538;2023-11-19T11:18:24;1.40;;;0.40;;
69730;SDS011;56996;48.138;11.538;2023-11-19T11:21:01;1.60;;;0.40;;
69730;SDS011;56996;48.138;11.538;2023-11-19T11:26:59;2.00;;;0.40;;
69730;SDS011;56996;48.138;11.538;2023-11-19T11:32:37;1.00;;;0.30;;
69730;SDS011;56996;48.138;11.538;2023-11-19T11:38:08;2.40;;;0.30;;
69730;SDS011;56996;48.138;11.538;2023-11-19T11:40:34;1.60;;;0.30;;
69730;SDS011;56996;48.138;11.538;2023-11-19T11:43:02;1.00;;;0.30;;
69730;SDS011;56996;48.138;11.538;2023-11-19T11:45:38;2.20;;;0.40;;
69730;SDS011;56996;48.138;11.538;2023-11-19T11:48:10;1.10;;;0.20;;
69730;SDS011;56996;48.138;11.538;2023-11-19T11:50:51;1.80;;;0.40;;
69730;SDS011;56996;48.138;11.538;2023-11-19T11:53:20;0.70;;;0.30;;
69730;SDS011;56996;48.138;11.538;2023-11-19T11:58:31;1.20;;;0.30;;
69730;SDS011;56996;48.138;11.538;2023-11-19T12:01:00;1.40;;;0.40;;
69730;SDS011;56996;48.138;11.538;2023-11-19T12:03:29;1.10;;;0.30;;
69730;SDS011;56996;48.138;11.538;2023-11-19T12:05:57;1.90;;;0.30;;
69730;SDS011;56996;48.138;11.538;2023-11-19T12:08:27;1.80;;;0.40;;
69730;SDS011;56996;48.138;11.538;2023-11-19T12:10:56;1.80;;;0.40;;
69730;SDS011;56996;48.138;11.538;2023-11-19T12:13:46;0.70;;;0.30;;
69730;SDS011;56996;48.138;11.538;2023-11-19T12:16:24;1.10;;;0.30;;
69730;SDS011;56996;48.138;11.538;2023-11-19T12:18:50;0.50;;;0.20;;
69730;SDS011;56996;48.138;11.538;2023-11-19T12:21:29;1.20;;;0.30;;
69730;SDS011;56996;48.138;11.538;2023-11-19T12:23:58;1.80;;;0.50;;
69730;SDS011;56996;48.138;11.538;2023-11-19T12:26:37;0.80;;;0.30;;
69730;SDS011;56996;48.138;11.538;2023-11-19T12:29:04;0.70;;;0.30;;
69730;SDS011;56996;48.138;11.538;2023-11-19T12:31:34;1.80;;;0.50;;
69730;SDS011;56996;48.138;11.538;2023-11-19T12:34:05;1.70;;;0.40;;
69730;SDS011;56996;48.138;11.538;2023-11-19T12:36:32;1.60;;;0.40;;
69730;SDS011;56996;48.138;11.538;2023-11-19T12:38:59;1.00;;;0.30;;
69730;SDS011;56996;48.138;11.538;2023-11-19T12:41:26;1.10;;;0.30;;
69730;SDS011;56996;48.138;11.538;2023-11-19T12:43:52;1.30;;;0.30;;
69730;SDS011;56996;48.138;11.538;2023-11-19T12:46:19;3.20;;;0.50;;
69730;SDS011;56996;48.138;11.538;2023-11-19T12:48:48;2.10;;;0.50;;
69730;SDS011;56996;48.138;11.538;2023-11-19T12:51:16;1.80;;;0.40;;
69730;SDS011;56996;48.138;11.538;2023-11-19T12:53:49;1.50;;;0.30;;
69730;SDS011;56996;48.138;11.538;2023-11-19T12:56:21;1.40;;;0.40;;
69730;SDS011;56996;48.138;11.538;2023-11-19T12:58:47;1.30;;;0.40;;
69730;SDS011;56996;48.138;11.538;2023-11-19T13:01:18;2.20;;;0.40;;
69730;SDS011;56996;48.138;11.538;2023-11-19T13:03:45;1.80;;;0.40;;
69730;SDS011;56996;48.138;11.538;2023-11-19T13:06:13;1.50;;;0.40;;
69730;SDS011;56996;48.138;11.538;2023-11-19T13:08:43;2.20;;;0.30;;
69730;SDS011;56996;48.138;11.538;2023-11-19T13:11:12;1.10;;;0.30;;
69730;SDS011;56996;48.138;11.538;2023-11-19T13:14:08;1.40;;;0.40;;
69730;SDS011;56996;48.138;11.538;2023-11-19T13:16:36;1.30;;;0.40;;
69730;SDS011;56996;48.138;11.538;2023-11-19T13:19:02;1.70;;;0.70;;
69730;SDS011;56996;48.138;11.538;2023-11-19T13:21:29;2.60;;;0.70;;
69730;SDS011;56996;48.138;11.538;2023-11-19T13:23:56;2.70;;;0.50;;
69730;SDS011;56996;48.138;11.538;2023-11-19T13:26:22;1.50;;;0.40;;
69730;SDS011;56996;48.138;11.538;2023-11-19T13:28:48;2.20;;;0.50;;
69730;SDS011;56996;48.138;11.538;2023-11-19T13:31:15;2.10;;;0.40;;
69730;SDS011;56996;48.138;11.538;2023-11-19T13:33:41;3.40;;;0.60;;
69730;SDS011;56996;48.138;11.538;2023-11-19T13:36:08;2.00;;;0.50;;
69730;SDS011;56996;48.138;11.538;2023-11-19T13:38:35;4.20;;;1.50;;
69730;SDS011;56996;48.138;11.538;2023-11-19T13:41:05;1.70;;;0.50;;
69730;SDS011;56996;48.138;11.538;2023-11-19T13:43:32;2.60;;;0.60;;
69730;SDS011;56996;48.138;11.538;2023-11-19T13:45:58;2.70;;;0.60;;
69730;SDS011;56996;48.138;11.538;2023-11-19T13:48:24;2.20;;;0.70;;
69730;SDS011;56996;48.138;11.538;2023-11-19T13:50:52;2.60;;;0.60;;
69730;SDS011;56996;48.138;11.538;2023-11-19T13:53:18;1.80;;;0.40;;
69730;SDS011;56996;48.138;11.538;2023-11-19T13:55:44;1.90;;;0.40;;
69730;SDS011;56996;48.138;11.538;2023-11-19T13:58:10;1.60;;;0.40;;
69730;SDS011;56996;48.138;11.538;2023-11-19T14:00:37;1.80;;;0.40;;
69730;SDS011;56996;48.138;11.538;2023-11-19T14:03:04;2.10;;;0.40;;
69730;SDS011;56996;48.138;11.538;2023-11-19T14:05:30;2.20;;;0.40;;
69730;SDS011;56996;48.138;11.538;2023-11-19T14:08:00;1.20;;;0.30;;
69730;SDS011;56996;48.138;11.538;2023-11-19T14:10:28;2.40;;;0.40;;
69730;SDS011;56996;48.138;11.538;2023-11-19T14:12:54;1.40;;;0.50;;
69730;SDS011;56996;48.138;11.538;2023-11-19T14:15:20;2.70;;;0.40;;
69730;SDS011;56996;48.138;11.538;2023-11-19T14:17:46;3.00;;;0.60;;
69730;SDS011;56996;48.138;11.538;2023-11-19T14:20:12;1.60;;;0.40;;
69730;SDS011;56996;48.138;11.538;2023-11-19T14:22:39;1.10;;;0.40;;
69730;SDS011;56996;48.138;11.538;2023-11-19T14:25:06;3.50;;;0.60;;
69730;SDS011;56996;48.138;11.538;2023-11-19T14:27:45;1.00;;;0.30;;
69730;SDS011;56996;48.138;11.538;2023-11-19T14:30:14;1.30;;;0.40;;
69730;SDS011;56996;48.138;11.538;2023-11-19T14:32:41;1.50;;;0.40;;
69730;SDS011;56996;48.138;11.538;2023-11-19T14:35:10;2.80;;;0.50;;
69730;SDS011;56996;48.138;11.538;2023-11-19T14:37:36;3.90;;;0.70;;
69730;SDS011;56996;48.138;11.538;2023-11-19T14:40:03;1.80;;;0.40;;
69730;SDS011;56996;48.138;11.538;2023-11-19T14:42:37;2.40;;;0.50;;
69730;SDS011;56996;48.138;11.538;2023-11-19T14:45:06;2.20;;;0.50;;
69730;SDS011;56996;48.138;11.538;2023-11-19T14:47:33;2.00;;;0.50;;
69730;SDS011;56996;48.138;11.538;2023-11-19T14:49:59;2.60;;;0.50;;
69730;SDS011;56996;48.138;11.538;2023-11-19T14:52:25;1.90;;;0.40;;
69730;SDS011;56996;48.138;11.538;2023-11-19T14:54:51;2.80;;;0.60;;
69730;SDS011;56996;48.138;11.538;2023-11-19T14:57:19;2.20;;;0.50;;
69730;SDS011;56996;48.138;11.538;2023-11-19T14:59:51;2.60;;;0.40;;
69730;SDS011;56996;48.138;11.538;2023-11-19T15:02:18;3.00;;;0.70;;
69730;SDS011;56996;48.138;11.538;2023-11-19T15:04:44;1.60;;;0.40;;
69730;SDS011;56996;48.138;11.538;2023-11-19T15:07:11;1.80;;;0.40;;
69730;SDS011;56996;48.138;11.538;2023-11-19T15:09:37;2.20;;;0.40;;
69730;SDS011;56996;48.138;11.538;2023-11-19T15:12:05;4.40;;;0.60;;
69730;SDS011;56996;48.138;11.538;2023-11-19T15:14:31;1.90;;;0.40;;
69730;SDS011;56996;48.138;11.538;2023-11-19T15:16:57;1.60;;;0.40;;
69730;SDS011;56996;48.138;11.538;2023-11-19T15:19:24;2.40;;;0.50;;
69730;SDS011;56996;48.138;11.538;2023-11-19T15:21:50;2.40;;;0.50;;
69730;SDS011;56996;48.138;11.538;2023-11-19T15:24:16;2.30;;;0.50;;
69730;SDS011;56996;48.138;11.538;2023-11-19T15:26:42;2.80;;;0.50;;
69730;SDS011;56996;48.138;11.538;2023-11-19T15:29:08;2.00;;;0.40;;
69730;SDS011;56996;48.138;11.538;2023-11-19T15:31:35;2.30;;;0.40;;
69730;SDS011;56996;48.138;11.538;2023-11-19T15:34:01;1.80;;;0.30;;
69730;SDS011;56996;48.138;11.538;2023-11-19T15:36:43;3.10;;;0.60;;
69730;SDS011;56996;48.138;11.538;2023-11-19T15:39:10;2.50;;;1.00;;
69730;SDS011;56996;48.138;11.538;2023-11-19T15:41:36;2.30;;;0.40;;
69730;SDS011;56996;48.138;11.538;2023-11-19T15:44:03;1.80;;;0.50;;
69730;SDS011;56996;48.138;11.538;2023-11-19T15:46:29;3.20;;;0.60;;
69730;SDS011;56996;48.138;11.538;2023-11-19T15:48:56;2.60;;;0.60;;
69730;SDS011;56996;48.138;11.538;2023-11-19T15:51:22;3.50;;;0.70;;
69730;SDS011;56996;48.138;11.538;2023-11-19T15:53:48;2.90;;;0.60;;
69730;SDS011;56996;48.138;11.538;2023-11-19T15:56:14;4.00;;;1.00;;
69730;SDS011;56996;48.138;11.538;2023-11-19T15:58:40;3.90;;;0.90;;
69730;SDS011;56996;48.138;11.538;2023-11-19T16:01:07;3.20;;;0.80;;
69730;SDS011;56996;48.138;11.538;2023-11-19T16:03:35;4.20;;;0.80;;
69730;SDS011;56996;48.138;11.538;2023-11-19T16:06:05;3.40;;;1.00;;
69730;SDS011;56996;48.138;11.538;2023-11-19T16:08:36;2.70;;;0.70;;
69730;SDS011;56996;48.138;11.538;2023-11-19T16:11:04;3.00;;;0.60;;
69730;SDS011;56996;48.138;11.538;2023-11-19T16:13:31;3.40;;;0.70;;
69730;SDS011;56996;48.138;11.538;2023-11-19T16:15:57;3.20;;;0.70;;
69730;SDS011;56996;48.138;11.538;2023-11-19T16:18:23;3.50;;;0.60;;
69730;SDS011;56996;48.138;11.538;2023-11-19T16:20:50;3.30;;;0.80;;
69730;SDS011;56996;48.138;11.538;2023-11-19T16:23:16;3.00;;;0.70;;
69730;SDS011;56996;48.138;11.538;2023-11-19T16:25:45;5.70;;;1.10;;
69730;SDS011;56996;48.138;11.538;2023-11-19T16:28:11;3.70;;;1.00;;
69730;SDS011;56996;48.138;11.538;2023-11-19T16:30:37;3.20;;;0.80;;